sensor_id;sensor_type;location;lat;lon;timestamp;pressure;altitude;pressure_sealevel;temperature;humidity
50434;BME280;36361;38.954;-9.002;2024-03-23T00:54:15;100343.78;;;20.37;100.00
50434;BME280;36361;38.954;-9.002;2024-03-23T00:55:16;100359.25;;;20.43;100.00
50434;BME280;36361;38.954;-9.002;2024-03-23T00:56:17;100355.69;;;20.43;100.00
50434;BME280;36361;38.954;-9.002;2024-03-23T00:57:17;100363.13;;;20.42;100.00
50434;BME280;36361;38.954;-9.002;2024-03-23T00:58:18;100361.44;;;20.47;100.00
50434;BME280;36361;38.954;-9.002;2024-03-23T00:59:19;100364.50;;;20.45;100.00
50434;BME280;36361;38.954;-9.002;2024-03-23T01:00:20;100357.84;;;20.46;100.00
50434;BME280;36361;38.954;-9.002;2024-03-23T01:01:21;100353.75;;;20.43;100.00
50434;BME280;36361;38.954;-9.002;2024-03-23T01:02:22;100351.25;;;20.42;100.00
50434;BME280;36361;38.954;-9.002;2024-03-23T01:03:22;100364.22;;;20.41;100.00
50434;BME280;36361;38.954;-9.002;2024-03-23T01:04:23;100356.22;;;20.40;100.00
50434;BME280;36361;38.954;-9.002;2024-03-23T01:05:24;100352.34;;;20.41;100.00
50434;BME280;36361;38.954;-9.002;2024-03-23T01:06:25;100359.00;;;20.40;100.00
50434;BME280;36361;38.954;-9.002;2024-03-23T01:07:26;100354.00;;;20.42;100.00
50434;BME280;36361;38.954;-9.002;2024-03-23T01:08:26;100356.22;;;20.40;100.00
50434;BME280;36361;38.954;-9.002;2024-03-23T01:09:27;100362.84;;;20.44;100.00
50434;BME280;36361;38.954;-9.002;2024-03-23T01:10:28;100359.25;;;20.38;100.00
50434;BME280;36361;38.954;-9.002;2024-03-23T01:11:29;100350.16;;;20.43;100.00
50434;BME280;36361;38.954;-9.002;2024-03-23T01:12:29;100343.78;;;20.42;100.00
50434;BME280;36361;38.954;-9.002;2024-03-23T01:13:30;100353.50;;;20.35;100.00
50434;BME280;36361;38.954;-9.002;2024-03-23T01:14:31;100353.47;;;20.40;100.00
50434;BME280;36361;38.954;-9.002;2024-03-23T01:15:33;100344.63;;;20.43;100.00
50434;BME280;36361;38.954;-9.002;2024-03-23T01:16:34;100349.63;;;20.36;100.00
50434;BME280;36361;38.954;-9.002;2024-03-23T01:17:35;100339.44;;;20.31;100.00
50434;BME280;36361;38.954;-9.002;2024-03-23T01:18:36;100341.94;;;20.28;100.00
50434;BME280;36361;38.954;-9.002;2024-03-23T01:19:36;100351.03;;;20.33;100.00
50434;BME280;36361;38.954;-9.002;2024-03-23T01:20:39;100331.16;;;20.31;100.00
50434;BME280;36361;38.954;-9.002;2024-03-23T01:21:40;100340.22;;;20.37;100.00
50434;BME280;36361;38.954;-9.002;2024-03-23T01:22:41;100333.03;;;20.36;100.00
50434;BME280;36361;38.954;-9.002;2024-03-23T01:23:42;100332.22;;;20.35;100.00
50434;BME280;36361;38.954;-9.002;2024-03-23T01:24:43;100322.03;;;20.31;100.00
50434;BME280;36361;38.954;-9.002;2024-03-23T01:25:43;100328.38;;;20.31;100.00
50434;BME280;36361;38.954;-9.002;2024-03-23T01:26:51;100330.56;;;20.34;100.00
50434;BME280;36361;38.954;-9.002;2024-03-23T01:27:52;100331.38;;;20.35;100.00
50434;BME280;36361;38.954;-9.002;2024-03-23T01:28:53;100331.16;;;20.31;100.00
50434;BME280;36361;38.954;-9.002;2024-03-23T01:29:54;100330.34;;;20.31;100.00
50434;BME280;36361;38.954;-9.002;2024-03-23T01:30:55;100335.56;;;20.32;100.00
50434;BME280;36361;38.954;-9.002;2024-03-23T01:31:55;100327.81;;;20.29;100.00
50434;BME280;36361;38.954;-9.002;2024-03-23T01:32:56;100324.53;;;20.27;100.00
50434;BME280;36361;38.954;-9.002;2024-03-23T01:33:57;100323.13;;;20.30;100.00
50434;BME280;36361;38.954;-9.002;2024-03-23T01:34:59;100320.66;;;20.28;100.00
50434;BME280;36361;38.954;-9.002;2024-03-23T01:35:59;100312.72;;;20.22;100.00
50434;BME280;36361;38.954;-9.002;2024-03-23T01:37:00;100316.25;;;20.27;100.00
50434;BME280;36361;38.954;-9.002;2024-03-23T01:38:01;100322.59;;;20.28;100.00
50434;BME280;36361;38.954;-9.002;2024-03-23T01:39:02;100318.69;;;20.34;100.00
50434;BME280;36361;38.954;-9.002;2024-03-23T01:40:03;100315.13;;;20.28;100.00
50434;BME280;36361;38.954;-9.002;2024-03-23T01:41:04;100316.00;;;20.24;100.00
50434;BME280;36361;38.954;-9.002;2024-03-23T01:42:05;100320.41;;;20.25;100.00
50434;BME280;36361;38.954;-9.002;2024-03-23T01:43:08;100325.88;;;20.30;100.00
50434;BME280;36361;38.954;-9.002;2024-03-23T01:44:09;100315.94;;;20.29;100.00
50434;BME280;36361;38.954;-9.002;2024-03-23T01:45:11;100315.19;;;20.23;100.00
50434;BME280;36361;38.954;-9.002;2024-03-23T01:46:12;100319.84;;;20.28;100.00
50434;BME280;36361;38.954;-9.002;2024-03-23T01:47:13;100313.75;;;20.31;100.00
50434;BME280;36361;38.954;-9.002;2024-03-23T01:48:14;100322.03;;;20.31;100.00
50434;BME280;36361;38.954;-9.002;2024-03-23T01:49:15;100318.78;;;20.24;100.00
50434;BME280;36361;38.954;-9.002;2024-03-23T01:50:17;100318.19;;;20.27;100.00
50434;BME280;36361;38.954;-9.002;2024-03-23T01:51:17;100311.00;;;20.26;100.00
50434;BME280;36361;38.954;-9.002;2024-03-23T01:52:19;100320.91;;;20.32;100.00
50434;BME280;36361;38.954;-9.002;2024-03-23T01:53:20;100324.81;;;20.31;100.00
50434;BME280;36361;38.954;-9.002;2024-03-23T01:54:23;100317.34;;;20.31;100.00
50434;BME280;36361;38.954;-9.002;2024-03-23T01:55:24;100315.13;;;20.28;100.00
50434;BME280;36361;38.954;-9.002;2024-03-23T01:56:25;100310.44;;;20.29;100.00
50434;BME280;36361;38.954;-9.002;2024-03-23T01:57:26;100318.16;;;20.32;100.00
50434;BME280;36361;38.954;-9.002;2024-03-23T01:58:27;100320.66;;;20.28;100.00
50434;BME280;36361;38.954;-9.002;2024-03-23T01:59:28;100311.00;;;20.26;100.00
50434;BME280;36361;38.954;-9.002;2024-03-23T02:00:29;100310.44;;;20.29;100.00
50434;BME280;36361;38.954;-9.002;2024-03-23T02:01:30;100313.41;;;20.37;100.00
50434;BME280;36361;38.954;-9.002;2024-03-23T02:02:30;100310.34;;;20.39;96.88
50434;BME280;36361;38.954;-9.002;2024-03-23T02:03:31;100310.34;;;20.39;100.00
50434;BME280;36361;38.954;-9.002;2024-03-23T02:04:32;100318.63;;;20.44;95.93
50434;BME280;36361;38.954;-9.002;2024-03-23T02:05:33;100316.66;;;20.50;95.84
50434;BME280;36361;38.954;-9.002;2024-03-23T02:06:34;100321.16;;;20.69;94.29
50434;BME280;36361;38.954;-9.002;2024-03-23T02:07:34;100318.44;;;20.64;94.80
50434;BME280;36361;38.954;-9.002;2024-03-23T02:08:35;100322.22;;;20.73;92.95
50434;BME280;36361;38.954;-9.002;2024-03-23T02:09:36;100316.75;;;20.68;96.85
50434;BME280;36361;38.954;-9.002;2024-03-23T02:10:37;100320.38;;;20.64;94.08
50434;BME280;36361;38.954;-9.002;2024-03-23T02:11:38;100327.91;;;20.58;98.58
50434;BME280;36361;38.954;-9.002;2024-03-23T02:12:39;100332.94;;;20.51;97.11
50434;BME280;36361;38.954;-9.002;2024-03-23T02:13:40;100327.19;;;20.42;100.00
50434;BME280;36361;38.954;-9.002;2024-03-23T02:14:40;100335.22;;;20.39;98.98
50434;BME280;36361;38.954;-9.002;2024-03-23T02:15:41;100336.03;;;20.44;96.17
50434;BME280;36361;38.954;-9.002;2024-03-23T02:16:43;100326.06;;;20.49;94.69
50434;BME280;36361;38.954;-9.002;2024-03-23T02:17:43;100325.81;;;20.45;98.87
50434;BME280;36361;38.954;-9.002;2024-03-23T02:18:44;100319.94;;;20.52;94.15
50434;BME280;36361;38.954;-9.002;2024-03-23T02:19:45;100319.88;;;20.57;95.24
50434;BME280;36361;38.954;-9.002;2024-03-23T02:20:47;100315.84;;;20.49;94.37
50434;BME280;36361;38.954;-9.002;2024-03-23T02:21:47;100314.13;;;20.53;93.95
50434;BME280;36361;38.954;-9.002;2024-03-23T02:22:52;100318.59;;;20.49;99.08
50434;BME280;36361;38.954;-9.002;2024-03-23T02:23:53;100314.44;;;20.52;94.48
50434;BME280;36361;38.954;-9.002;2024-03-23T02:24:54;100319.63;;;20.58;96.11
50434;BME280;36361;38.954;-9.002;2024-03-23T02:25:55;100310.88;;;20.46;100.00
50434;BME280;36361;38.954;-9.002;2024-03-23T02:26:56;100314.75;;;20.45;99.90
50434;BME280;36361;38.954;-9.002;2024-03-23T02:27:56;100311.19;;;20.39;100.00
50434;BME280;36361;38.954;-9.002;2024-03-23T02:28:59;100303.97;;;20.38;99.44
50434;BME280;36361;38.954;-9.002;2024-03-23T02:30:00;100304.81;;;20.39;100.00
50434;BME280;36361;38.954;-9.002;2024-03-23T02:31:00;100310.63;;;20.37;100.00
50434;BME280;36361;38.954;-9.002;2024-03-23T02:32:02;100308.47;;;20.34;100.00
50434;BME280;36361;38.954;-9.002;2024-03-23T02:33:03;100317.03;;;20.33;100.00
50434;BME280;36361;38.954;-9.002;2024-03-23T02:34:04;100326.44;;;20.32;100.00
50434;BME280;36361;38.954;-9.002;2024-03-23T02:35:05;100321.47;;;20.29;100.00
50434;BME280;36361;38.954;-9.002;2024-03-23T02:36:06;100315.72;;;20.25;100.00
50434;BME280;36361;38.954;-9.002;2024-03-23T02:37:13;100313.28;;;20.18;99.35
50434;BME280;36361;38.954;-9.002;2024-03-23T02:38:13;100313.84;;;20.15;100.00
50434;BME280;36361;38.954;-9.002;2024-03-23T02:39:14;100307.22;;;20.16;100.00
50434;BME280;36361;38.954;-9.002;2024-03-23T02:40:16;100315.47;;;20.22;100.00
50434;BME280;36361;38.954;-9.002;2024-03-23T02:41:17;100314.31;;;20.28;99.10
50434;BME280;36361;38.954;-9.002;2024-03-23T02:42:23;100296.53;;;20.39;97.05
50434;BME280;36361;38.954;-9.002;2024-03-23T02:43:23;100307.25;;;20.51;97.69
50434;BME280;36361;38.954;-9.002;2024-03-23T02:44:24;100300.97;;;20.40;97.19
50434;BME280;36361;38.954;-9.002;2024-03-23T02:45:25;100298.16;;;20.45;97.62
50434;BME280;36361;38.954;-9.002;2024-03-23T02:46:26;100295.97;;;20.42;95.89
50434;BME280;36361;38.954;-9.002;2024-03-23T02:47:27;100300.91;;;20.50;97.93
50434;BME280;36361;38.954;-9.002;2024-03-23T02:48:28;100293.19;;;20.42;99.83
50434;BME280;36361;38.954;-9.002;2024-03-23T02:49:28;100292.69;;;20.35;100.00
50434;BME280;36361;38.954;-9.002;2024-03-23T02:50:29;100291.06;;;20.34;100.00
50434;BME280;36361;38.954;-9.002;2024-03-23T02:51:30;100272.31;;;20.26;100.00
50434;BME280;36361;38.954;-9.002;2024-03-23T02:52:31;100272.91;;;20.23;100.00
50434;BME280;36361;38.954;-9.002;2024-03-23T02:53:32;100273.25;;;20.16;100.00
50434;BME280;36361;38.954;-9.002;2024-03-23T02:54:33;100272.66;;;20.19;100.00
50434;BME280;36361;38.954;-9.002;2024-03-23T02:55:34;100277.03;;;20.25;100.00
50434;BME280;36361;38.954;-9.002;2024-03-23T02:56:35;100277.84;;;20.26;100.00
50434;BME280;36361;38.954;-9.002;2024-03-23T02:57:35;100277.84;;;20.26;100.00
50434;BME280;36361;38.954;-9.002;2024-03-23T02:58:36;100282.88;;;20.18;100.00
50434;BME280;36361;38.954;-9.002;2024-03-23T02:59:37;100279.56;;;20.22;100.00
50434;BME280;36361;38.954;-9.002;2024-03-23T03:00:38;100281.22;;;20.17;100.00
50434;BME280;36361;38.954;-9.002;2024-03-23T03:01:38;100283.38;;;20.26;98.65
50434;BME280;36361;38.954;-9.002;2024-03-23T03:02:39;100266.22;;;20.29;100.00
50434;BME280;36361;38.954;-9.002;2024-03-23T03:03:40;100265.16;;;20.25;98.30
50434;BME280;36361;38.954;-9.002;2024-03-23T03:04:41;100260.44;;;20.25;100.00
50434;BME280;36361;38.954;-9.002;2024-03-23T03:05:42;100270.09;;;20.28;100.00
50434;BME280;36361;38.954;-9.002;2024-03-23T03:06:46;100265.16;;;20.25;100.00
50434;BME280;36361;38.954;-9.002;2024-03-23T03:07:47;100268.44;;;20.27;100.00
50434;BME280;36361;38.954;-9.002;2024-03-23T03:08:48;100260.75;;;20.24;100.00
50434;BME280;36361;38.954;-9.002;2024-03-23T03:09:49;100262.41;;;20.20;100.00
50434;BME280;36361;38.954;-9.002;2024-03-23T03:10:50;100265.16;;;20.25;100.00
50434;BME280;36361;38.954;-9.002;2024-03-23T03:11:50;100264.06;;;20.21;100.00
50434;BME280;36361;38.954;-9.002;2024-03-23T03:12:51;100261.31;;;20.21;100.00
50434;BME280;36361;38.954;-9.002;2024-03-23T03:13:52;100255.84;;;20.15;100.00
50434;BME280;36361;38.954;-9.002;2024-03-23T03:14:53;100253.91;;;20.16;100.00
50434;BME280;36361;38.954;-9.002;2024-03-23T03:15:54;100260.22;;;20.22;100.00
50434;BME280;36361;38.954;-9.002;2024-03-23T03:16:54;100253.28;;;20.24;100.00
50434;BME280;36361;38.954;-9.002;2024-03-23T03:17:55;100255.75;;;20.26;100.00
50434;BME280;36361;38.954;-9.002;2024-03-23T03:18:56;100250.84;;;20.17;100.00
50434;BME280;36361;38.954;-9.002;2024-03-23T03:19:57;100243.66;;;20.16;100.00
50434;BME280;36361;38.954;-9.002;2024-03-23T03:20:58;100241.97;;;20.21;100.00
50434;BME280;36361;38.954;-9.002;2024-03-23T03:21:59;100237.84;;;20.18;100.00
50434;BME280;36361;38.954;-9.002;2024-03-23T03:23:00;100241.41;;;20.24;100.00
50434;BME280;36361;38.954;-9.002;2024-03-23T03:24:01;100243.34;;;20.23;100.00
50434;BME280;36361;38.954;-9.002;2024-03-23T03:25:02;100239.19;;;20.21;100.00
50434;BME280;36361;38.954;-9.002;2024-03-23T03:26:04;100234.25;;;20.23;100.00
50434;BME280;36361;38.954;-9.002;2024-03-23T03:27:05;100235.38;;;20.16;100.00
50434;BME280;36361;38.954;-9.002;2024-03-23T03:28:07;100255.97;;;20.29;100.00
50434;BME280;36361;38.954;-9.002;2024-03-23T03:29:08;100257.88;;;20.34;100.00
50434;BME280;36361;38.954;-9.002;2024-03-23T03:30:09;100271.19;;;20.32;99.40
50434;BME280;36361;38.954;-9.002;2024-03-23T03:31:10;100282.13;;;20.42;99.39
50434;BME280;36361;38.954;-9.002;2024-03-23T03:32:10;100286.34;;;20.34;100.00
50434;BME280;36361;38.954;-9.002;2024-03-23T03:33:12;100290.16;;;20.43;99.69
50434;BME280;36361;38.954;-9.002;2024-03-23T03:34:13;100296.25;;;20.40;100.00
50434;BME280;36361;38.954;-9.002;2024-03-23T03:35:13;100287.16;;;20.35;100.00
50434;BME280;36361;38.954;-9.002;2024-03-23T03:36:14;100284.44;;;20.30;100.00
50434;BME280;36361;38.954;-9.002;2024-03-23T03:37:15;100283.91;;;20.28;100.00
50434;BME280;36361;38.954;-9.002;2024-03-23T03:38:16;100272.91;;;20.23;100.00
50434;BME280;36361;38.954;-9.002;2024-03-23T03:39:16;100270.69;;;20.25;100.00
50434;BME280;36361;38.954;-9.002;2024-03-23T03:40:17;100275.13;;;20.21;100.00
50434;BME280;36361;38.954;-9.002;2024-03-23T03:41:18;100270.16;;;20.23;100.00
50434;BME280;36361;38.954;-9.002;2024-03-23T03:42:19;100268.97;;;20.29;100.00
50434;BME280;36361;38.954;-9.002;2024-03-23T03:43:20;100273.75;;;20.23;100.00
50434;BME280;36361;38.954;-9.002;2024-03-23T03:44:21;100270.47;;;20.16;100.00
50434;BME280;36361;38.954;-9.002;2024-03-23T03:45:22;100270.78;;;20.14;100.00
50434;BME280;36361;38.954;-9.002;2024-03-23T03:46:23;100269.13;;;20.13;100.00
50434;BME280;36361;38.954;-9.002;2024-03-23T03:47:24;100272.41;;;20.15;100.00
50434;BME280;36361;38.954;-9.002;2024-03-23T03:48:24;100268.22;;;20.23;100.00
50434;BME280;36361;38.954;-9.002;2024-03-23T03:49:25;100268.78;;;20.20;100.00
50434;BME280;36361;38.954;-9.002;2024-03-23T03:50:26;100255.25;;;20.18;100.00
50434;BME280;36361;38.954;-9.002;2024-03-23T03:51:27;100257.81;;;20.39;100.00
50434;BME280;36361;38.954;-9.002;2024-03-23T03:52:28;100269.25;;;20.32;100.00
50434;BME280;36361;38.954;-9.002;2024-03-23T03:53:29;100255.66;;;20.36;99.40
50434;BME280;36361;38.954;-9.002;2024-03-23T03:54:30;100257.91;;;20.29;100.00
50434;BME280;36361;38.954;-9.002;2024-03-23T03:55:31;100259.63;;;20.25;100.00
50434;BME280;36361;38.954;-9.002;2024-03-23T03:56:32;100258.00;;;20.18;100.00
50434;BME280;36361;38.954;-9.002;2024-03-23T03:57:33;100262.41;;;20.25;100.00
50434;BME280;36361;38.954;-9.002;2024-03-23T03:58:34;100263.84;;;20.17;100.00
50434;BME280;36361;38.954;-9.002;2024-03-23T03:59:35;100251.97;;;20.16;100.00
50434;BME280;36361;38.954;-9.002;2024-03-23T04:00:36;100254.94;;;20.25;100.00
50434;BME280;36361;38.954;-9.002;2024-03-23T04:01:36;100258.28;;;20.22;100.00
50434;BME280;36361;38.954;-9.002;2024-03-23T04:02:38;100258.06;;;20.13;100.00
50434;BME280;36361;38.954;-9.002;2024-03-23T04:03:39;100264.97;;;20.11;100.00
50434;BME280;36361;38.954;-9.002;2024-03-23T04:04:44;100257.81;;;20.10;100.00
50434;BME280;36361;38.954;-9.002;2024-03-23T04:05:52;100253.16;;;20.05;100.00
50434;BME280;36361;38.954;-9.002;2024-03-23T04:07:00;100261.69;;;20.09;100.00
50434;BME280;36361;38.954;-9.002;2024-03-23T04:08:01;100272.72;;;20.14;100.00
50434;BME280;36361;38.954;-9.002;2024-03-23T04:09:02;100270.78;;;20.14;100.00
50434;BME280;36361;38.954;-9.002;2024-03-23T04:10:03;100270.78;;;20.14;100.00
50434;BME280;36361;38.954;-9.002;2024-03-23T04:11:07;100261.31;;;20.21;100.00
50434;BME280;36361;38.954;-9.002;2024-03-23T04:12:09;100265.38;;;20.28;100.00
50434;BME280;36361;38.954;-9.002;2024-03-23T04:13:09;100277.25;;;20.29;100.00
50434;BME280;36361;38.954;-9.002;2024-03-23T04:14:10;100277.84;;;20.26;100.00
50434;BME280;36361;38.954;-9.002;2024-03-23T04:15:11;100264.72;;;20.12;100.00
50434;BME280;36361;38.954;-9.002;2024-03-23T04:16:12;100276.28;;;20.14;100.00
50434;BME280;36361;38.954;-9.002;2024-03-23T04:17:13;100273.78;;;20.18;100.00
50434;BME280;36361;38.954;-9.002;2024-03-23T04:18:14;100280.41;;;20.17;100.00
50434;BME280;36361;38.954;-9.002;2024-03-23T04:19:15;100272.94;;;20.17;100.00
50434;BME280;36361;38.954;-9.002;2024-03-23T04:20:16;100258.53;;;20.21;100.00
50434;BME280;36361;38.954;-9.002;2024-03-23T04:21:17;100255.84;;;20.15;100.00
50434;BME280;36361;38.954;-9.002;2024-03-23T04:22:18;100254.44;;;20.18;100.00
50434;BME280;36361;38.954;-9.002;2024-03-23T04:23:19;100256.91;;;20.20;100.00
50434;BME280;36361;38.954;-9.002;2024-03-23T04:24:19;100255.25;;;20.18;100.00
50434;BME280;36361;38.954;-9.002;2024-03-23T04:25:22;100269.03;;;20.24;100.00
50434;BME280;36361;38.954;-9.002;2024-03-23T04:26:23;100269.03;;;20.24;100.00
50434;BME280;36361;38.954;-9.002;2024-03-23T04:27:24;100266.81;;;20.26;100.00
50434;BME280;36361;38.954;-9.002;2024-03-23T04:28:25;100274.28;;;20.25;100.00
50434;BME280;36361;38.954;-9.002;2024-03-23T04:29:26;100277.31;;;20.24;100.00
50434;BME280;36361;38.954;-9.002;2024-03-23T04:30:27;100279.00;;;20.20;100.00
50434;BME280;36361;38.954;-9.002;2024-03-23T04:31:29;100275.72;;;20.17;100.00
50434;BME280;36361;38.954;-9.002;2024-03-23T04:32:32;100278.47;;;20.17;100.00
50434;BME280;36361;38.954;-9.002;2024-03-23T04:33:33;100269.59;;;20.21;100.00
50434;BME280;36361;38.954;-9.002;2024-03-23T04:34:33;100276.28;;;20.14;100.00
50434;BME280;36361;38.954;-9.002;2024-03-23T04:35:34;100273.00;;;20.12;100.00
50434;BME280;36361;38.954;-9.002;2024-03-23T04:36:35;100285.13;;;20.16;100.00
50434;BME280;36361;38.954;-9.002;2024-03-23T04:37:36;100287.59;;;20.18;100.00
50434;BME280;36361;38.954;-9.002;2024-03-23T04:38:38;100291.66;;;20.26;100.00
50434;BME280;36361;38.954;-9.002;2024-03-23T04:39:38;100295.03;;;20.23;100.00
50434;BME280;36361;38.954;-9.002;2024-03-23T04:40:39;100295.56;;;20.20;100.00
50434;BME280;36361;38.954;-9.002;2024-03-23T04:41:43;100292.88;;;20.14;100.00
50434;BME280;36361;38.954;-9.002;2024-03-23T04:42:44;100294.75;;;20.19;100.00
50434;BME280;36361;38.954;-9.002;2024-03-23T04:43:45;100299.50;;;20.13;100.00
50434;BME280;36361;38.954;-9.002;2024-03-23T04:44:46;100295.09;;;20.12;100.00
50434;BME280;36361;38.954;-9.002;2024-03-23T04:45:46;100285.69;;;20.13;100.00
50434;BME280;36361;38.954;-9.002;2024-03-23T04:46:47;100287.91;;;20.11;100.00
50434;BME280;36361;38.954;-9.002;2024-03-23T04:47:48;100288.50;;;20.08;100.00
50434;BME280;36361;38.954;-9.002;2024-03-23T04:48:49;100285.13;;;20.11;100.00
50434;BME280;36361;38.954;-9.002;2024-03-23T04:49:49;100280.19;;;20.13;100.00
50434;BME280;36361;38.954;-9.002;2024-03-23T04:50:55;100282.59;;;20.20;100.00
50434;BME280;36361;38.954;-9.002;2024-03-23T04:51:58;100283.47;;;20.15;100.00
50434;BME280;36361;38.954;-9.002;2024-03-23T04:52:58;100274.28;;;20.20;100.00
50434;BME280;36361;38.954;-9.002;2024-03-23T04:53:59;100275.41;;;20.19;100.00
50434;BME280;36361;38.954;-9.002;2024-03-23T04:55:00;100269.59;;;20.21;100.00
50434;BME280;36361;38.954;-9.002;2024-03-23T04:56:01;100283.97;;;20.23;100.00
50434;BME280;36361;38.954;-9.002;2024-03-23T04:57:02;100267.38;;;20.23;100.00
50434;BME280;36361;38.954;-9.002;2024-03-23T04:58:03;100266.88;;;20.15;100.00
50434;BME280;36361;38.954;-9.002;2024-03-23T04:59:04;100270.25;;;20.12;100.00
50434;BME280;36361;38.954;-9.002;2024-03-23T05:00:06;100265.81;;;20.11;100.00
50434;BME280;36361;38.954;-9.002;2024-03-23T05:01:17;100261.94;;;20.12;100.00
50434;BME280;36361;38.954;-9.002;2024-03-23T05:02:18;100267.22;;;20.09;100.00
50434;BME280;36361;38.954;-9.002;2024-03-23T05:03:18;100263.00;;;20.16;100.00
50434;BME280;36361;38.954;-9.002;2024-03-23T05:04:21;100264.16;;;20.10;100.00
50434;BME280;36361;38.954;-9.002;2024-03-23T05:05:22;100264.16;;;20.10;100.00
50434;BME280;36361;38.954;-9.002;2024-03-23T05:06:24;100258.06;;;20.13;100.00
50434;BME280;36361;38.954;-9.002;2024-03-23T05:07:25;100256.91;;;20.20;100.00
50434;BME280;36361;38.954;-9.002;2024-03-23T05:08:26;100263.00;;;20.16;100.00
50434;BME280;36361;38.954;-9.002;2024-03-23T05:09:27;100253.31;;;20.19;100.00
50434;BME280;36361;38.954;-9.002;2024-03-23T05:10:30;100263.00;;;20.16;100.00
50434;BME280;36361;38.954;-9.002;2024-03-23T05:11:33;100266.31;;;20.18;100.00
50434;BME280;36361;38.954;-9.002;2024-03-23T05:12:34;100276.78;;;20.22;100.00
50434;BME280;36361;38.954;-9.002;2024-03-23T05:13:35;100284.81;;;20.18;100.00
50434;BME280;36361;38.954;-9.002;2024-03-23T05:14:36;100288.41;;;20.18;100.00
50434;BME280;36361;38.954;-9.002;2024-03-23T05:15:37;100279.59;;;20.16;100.00
50434;BME280;36361;38.954;-9.002;2024-03-23T05:16:38;100277.97;;;20.10;100.00
50434;BME280;36361;38.954;-9.002;2024-03-23T05:17:39;100282.38;;;20.11;100.00
50434;BME280;36361;38.954;-9.002;2024-03-23T05:18:40;100282.66;;;20.10;100.00
50434;BME280;36361;38.954;-9.002;2024-03-23T05:19:41;100286.25;;;20.10;100.00
50434;BME280;36361;38.954;-9.002;2024-03-23T05:20:41;100280.72;;;20.10;100.00
50434;BME280;36361;38.954;-9.002;2024-03-23T05:21:45;100277.97;;;20.10;100.00
50434;BME280;36361;38.954;-9.002;2024-03-23T05:22:46;100282.13;;;20.13;100.00
50434;BME280;36361;38.954;-9.002;2024-03-23T05:23:47;100280.47;;;20.12;100.00
50434;BME280;36361;38.954;-9.002;2024-03-23T05:24:48;100274.09;;;20.11;100.00
50434;BME280;36361;38.954;-9.002;2024-03-23T05:25:49;100276.03;;;20.11;100.00
50434;BME280;36361;38.954;-9.002;2024-03-23T05:26:50;100268.53;;;20.16;100.00
50434;BME280;36361;38.954;-9.002;2024-03-23T05:27:51;100268.00;;;20.14;100.00
50434;BME280;36361;38.954;-9.002;2024-03-23T05:28:51;100277.44;;;20.08;100.00
50434;BME280;36361;38.954;-9.002;2024-03-23T05:29:52;100268.31;;;20.13;100.00
50434;BME280;36361;38.954;-9.002;2024-03-23T05:30:54;100272.09;;;20.22;100.00
50434;BME280;36361;38.954;-9.002;2024-03-23T05:31:55;100261.88;;;20.23;100.00
50434;BME280;36361;38.954;-9.002;2024-03-23T05:32:57;100257.41;;;20.27;100.00
50434;BME280;36361;38.954;-9.002;2024-03-23T05:33:58;100253.59;;;20.17;100.00
50434;BME280;36361;38.954;-9.002;2024-03-23T05:34:59;100254.72;;;20.16;100.00
50434;BME280;36361;38.954;-9.002;2024-03-23T05:36:03;100251.44;;;20.14;100.00
50434;BME280;36361;38.954;-9.002;2024-03-23T05:37:04;100259.19;;;20.12;100.00
50434;BME280;36361;38.954;-9.002;2024-03-23T05:38:05;100258.63;;;20.10;100.00
50434;BME280;36361;38.954;-9.002;2024-03-23T05:39:06;100263.53;;;20.18;100.00
50434;BME280;36361;38.954;-9.002;2024-03-23T05:40:07;100265.78;;;20.16;100.00
50434;BME280;36361;38.954;-9.002;2024-03-23T05:41:09;100265.25;;;20.14;100.00
50434;BME280;36361;38.954;-9.002;2024-03-23T05:42:10;100267.50;;;20.07;100.00
50434;BME280;36361;38.954;-9.002;2024-03-23T05:43:11;100226.56;;;20.14;100.00
50434;BME280;36361;38.954;-9.002;2024-03-23T05:44:12;100224.84;;;20.18;100.00
50434;BME280;36361;38.954;-9.002;2024-03-23T05:45:12;100250.91;;;20.12;100.00
50434;BME280;36361;38.954;-9.002;2024-03-23T05:46:13;100250.03;;;20.17;100.00
50434;BME280;36361;38.954;-9.002;2024-03-23T05:47:14;100250.53;;;20.24;100.00
50434;BME280;36361;38.954;-9.002;2024-03-23T05:48:16;100266.56;;;20.22;100.00
50434;BME280;36361;38.954;-9.002;2024-03-23T05:49:17;100257.72;;;20.20;100.00
50434;BME280;36361;38.954;-9.002;2024-03-23T05:50:18;100252.66;;;20.32;99.95
50434;BME280;36361;38.954;-9.002;2024-03-23T05:51:19;100236.06;;;20.32;98.15
50434;BME280;36361;38.954;-9.002;2024-03-23T05:52:20;100213.59;;;20.44;98.86
50434;BME280;36361;38.954;-9.002;2024-03-23T05:53:21;100187.00;;;20.48;96.02
50434;BME280;36361;38.954;-9.002;2024-03-23T05:54:22;100178.97;;;20.52;95.32
50434;BME280;36361;38.954;-9.002;2024-03-23T05:55:23;100167.91;;;20.52;94.67
50434;BME280;36361;38.954;-9.002;2024-03-23T05:56:23;100171.09;;;20.35;100.00
50434;BME280;36361;38.954;-9.002;2024-03-23T05:57:26;100167.72;;;20.43;97.01
50434;BME280;36361;38.954;-9.002;2024-03-23T05:58:27;100172.75;;;20.36;100.00
50434;BME280;36361;38.954;-9.002;2024-03-23T05:59:28;100189.09;;;20.32;100.00
50434;BME280;36361;38.954;-9.002;2024-03-23T06:00:29;100183.91;;;20.26;100.00
50434;BME280;36361;38.954;-9.002;2024-03-23T06:01:29;100183.28;;;20.34;100.00
50434;BME280;36361;38.954;-9.002;2024-03-23T06:02:33;100194.63;;;20.32;100.00
50434;BME280;36361;38.954;-9.002;2024-03-23T06:03:33;100182.75;;;20.32;98.26
50434;BME280;36361;38.954;-9.002;2024-03-23T06:04:35;100209.25;;;20.33;99.40
50434;BME280;36361;38.954;-9.002;2024-03-23T06:05:37;100222.00;;;20.29;100.00